sensor_id;sensor_type;location;lat;lon;timestamp;P1;durP1;ratioP1;P2;durP2;ratioP2
76262;SDS011;65080;50.908;6.916;2023-04-05T00:01:12;5.17;;;3.33;;
76262;SDS011;65080;50.908;6.916;2023-04-05T00:03:41;6.47;;;3.93;;
76262;SDS011;65080;50.908;6.916;2023-04-05T00:06:09;6.93;;;3.13;;
76262;SDS011;65080;50.908;6.916;2023-04-05T00:08:38;5.63;;;3.57;;
76262;SDS011;65080;50.908;6.916;2023-04-05T00:11:07;6.53;;;3.90;;
76262;SDS011;65080;50.908;6.916;2023-04-05T00:13:35;6.43;;;4.20;;
76262;SDS011;65080;50.908;6.916;2023-04-05T00:16:05;8.33;;;4.17;;
76262;SDS011;65080;50.908;6.916;2023-04-05T00:18:34;6.17;;;3.60;;
76262;SDS011;65080;50.908;6.916;2023-04-05T00:21:04;6.87;;;4.93;;
76262;SDS011;65080;50.908;6.916;2023-04-05T00:23:32;4.73;;;3.30;;
76262;SDS011;65080;50.908;6.916;2023-04-05T00:26:04;6.33;;;3.27;;
76262;SDS011;65080;50.908;6.916;2023-04-05T00:28:32;6.43;;;3.87;;
76262;SDS011;65080;50.908;6.916;2023-04-05T00:31:02;7.90;;;3.17;;
76262;SDS011;65080;50.908;6.916;2023-04-05T00:33:32;6.93;;;3.50;;
76262;SDS011;65080;50.908;6.916;2023-04-05T00:36:07;7.40;;;3.60;;
76262;SDS011;65080;50.908;6.916;2023-04-05T00:38:37;5.27;;;4.23;;
76262;SDS011;65080;50.908;6.916;2023-04-05T00:41:05;7.43;;;3.90;;
76262;SDS011;65080;50.908;6.916;2023-04-05T00:43:33;7.30;;;4.00;;
76262;SDS011;65080;50.908;6.916;2023-04-05T00:46:02;6.20;;;4.10;;
76262;SDS011;65080;50.908;6.916;2023-04-05T00:48:33;8.50;;;3.87;;
76262;SDS011;65080;50.908;6.916;2023-04-05T00:51:02;5.20;;;3.63;;
76262;SDS011;65080;50.908;6.916;2023-04-05T00:53:34;8.60;;;4.00;;
76262;SDS011;65080;50.908;6.916;2023-04-05T00:56:03;6.17;;;3.57;;
76262;SDS011;65080;50.908;6.916;2023-04-05T00:58:32;7.27;;;3.87;;
76262;SDS011;65080;50.908;6.916;2023-04-05T01:01:01;5.90;;;3.70;;
76262;SDS011;65080;50.908;6.916;2023-04-05T01:03:34;10.97;;;3.63;;
76262;SDS011;65080;50.908;6.916;2023-04-05T01:06:08;7.03;;;4.00;;
76262;SDS011;65080;50.908;6.916;2023-04-05T01:08:46;5.57;;;3.83;;
76262;SDS011;65080;50.908;6.916;2023-04-05T01:11:19;5.40;;;3.50;;
76262;SDS011;65080;50.908;6.916;2023-04-05T01:13:49;6.60;;;3.43;;
76262;SDS011;65080;50.908;6.916;2023-04-05T01:16:17;6.53;;;4.10;;
76262;SDS011;65080;50.908;6.916;2023-04-05T01:18:47;5.73;;;3.47;;
76262;SDS011;65080;50.908;6.916;2023-04-05T01:21:28;4.20;;;3.00;;
76262;SDS011;65080;50.908;6.916;2023-04-05T01:24:50;5.30;;;3.17;;
76262;SDS011;65080;50.908;6.916;2023-04-05T01:27:43;5.93;;;3.43;;
76262;SDS011;65080;50.908;6.916;2023-04-05T01:30:27;8.00;;;3.13;;
76262;SDS011;65080;50.908;6.916;2023-04-05T01:33:01;6.20;;;3.67;;
76262;SDS011;65080;50.908;6.916;2023-04-05T01:35:44;5.20;;;2.70;;
76262;SDS011;65080;50.908;6.916;2023-04-05T01:38:19;6.50;;;3.00;;
76262;SDS011;65080;50.908;6.916;2023-04-05T01:40:51;4.90;;;3.03;;
76262;SDS011;65080;50.908;6.916;2023-04-05T01:43:20;5.67;;;3.27;;
76262;SDS011;65080;50.908;6.916;2023-04-05T01:45:50;4.67;;;3.20;;
76262;SDS011;65080;50.908;6.916;2023-04-05T01:48:18;5.70;;;3.40;;
76262;SDS011;65080;50.908;6.916;2023-04-05T01:50:46;2.50;;;2.30;;
76262;SDS011;65080;50.908;6.916;2023-04-05T01:53:15;5.80;;;3.37;;
76262;SDS011;65080;50.908;6.916;2023-04-05T01:55:43;6.67;;;3.17;;
76262;SDS011;65080;50.908;6.916;2023-04-05T01:58:11;4.77;;;3.30;;
76262;SDS011;65080;50.908;6.916;2023-04-05T02:00:39;4.23;;;3.17;;
76262;SDS011;65080;50.908;6.916;2023-04-05T02:03:09;4.60;;;3.07;;
76262;SDS011;65080;50.908;6.916;2023-04-05T02:05:38;3.63;;;3.23;;
76262;SDS011;65080;50.908;6.916;2023-04-05T02:08:06;6.23;;;3.70;;
76262;SDS011;65080;50.908;6.916;2023-04-05T02:10:34;5.50;;;3.37;;
76262;SDS011;65080;50.908;6.916;2023-04-05T02:13:02;5.70;;;3.37;;
76262;SDS011;65080;50.908;6.916;2023-04-05T02:15:31;5.37;;;3.30;;
76262;SDS011;65080;50.908;6.916;2023-04-05T02:17:59;7.03;;;3.07;;
76262;SDS011;65080;50.908;6.916;2023-04-05T02:20:30;4.97;;;3.63;;
76262;SDS011;65080;50.908;6.916;2023-04-05T02:22:59;6.50;;;3.73;;
76262;SDS011;65080;50.908;6.916;2023-04-05T02:25:27;5.83;;;3.27;;
76262;SDS011;65080;50.908;6.916;2023-04-05T02:27:56;5.20;;;3.50;;
76262;SDS011;65080;50.908;6.916;2023-04-05T02:30:24;6.27;;;3.40;;
76262;SDS011;65080;50.908;6.916;2023-04-05T02:32:54;6.83;;;3.60;;
76262;SDS011;65080;50.908;6.916;2023-04-05T02:35:23;5.07;;;3.40;;
76262;SDS011;65080;50.908;6.916;2023-04-05T02:37:52;4.00;;;2.93;;
76262;SDS011;65080;50.908;6.916;2023-04-05T02:40:22;5.83;;;3.30;;
76262;SDS011;65080;50.908;6.916;2023-04-05T02:42:50;7.20;;;3.60;;
76262;SDS011;65080;50.908;6.916;2023-04-05T02:45:19;5.53;;;3.07;;
76262;SDS011;65080;50.908;6.916;2023-04-05T02:47:47;6.70;;;4.10;;
76262;SDS011;65080;50.908;6.916;2023-04-05T02:50:15;4.27;;;3.23;;
76262;SDS011;65080;50.908;6.916;2023-04-05T02:52:45;4.47;;;3.27;;
76262;SDS011;65080;50.908;6.916;2023-04-05T02:55:16;5.57;;;3.47;;
76262;SDS011;65080;50.908;6.916;2023-04-05T02:57:44;5.57;;;3.30;;
76262;SDS011;65080;50.908;6.916;2023-04-05T03:00:13;5.40;;;3.20;;
76262;SDS011;65080;50.908;6.916;2023-04-05T03:02:42;4.73;;;3.50;;
76262;SDS011;65080;50.908;6.916;2023-04-05T03:05:10;5.10;;;3.50;;
76262;SDS011;65080;50.908;6.916;2023-04-05T03:07:39;6.50;;;3.33;;
76262;SDS011;65080;50.908;6.916;2023-04-05T03:10:12;6.30;;;3.70;;
76262;SDS011;65080;50.908;6.916;2023-04-05T03:12:45;4.43;;;3.10;;
76262;SDS011;65080;50.908;6.916;2023-04-05T03:15:13;5.63;;;4.17;;
76262;SDS011;65080;50.908;6.916;2023-04-05T03:17:42;9.57;;;3.80;;
76262;SDS011;65080;50.908;6.916;2023-04-05T03:20:11;4.93;;;3.43;;
76262;SDS011;65080;50.908;6.916;2023-04-05T03:22:40;5.43;;;3.40;;
76262;SDS011;65080;50.908;6.916;2023-04-05T03:25:08;4.67;;;3.30;;
76262;SDS011;65080;50.908;6.916;2023-04-05T03:27:36;7.20;;;3.67;;
76262;SDS011;65080;50.908;6.916;2023-04-05T03:30:07;7.63;;;4.10;;
76262;SDS011;65080;50.908;6.916;2023-04-05T03:32:35;7.50;;;4.30;;
76262;SDS011;65080;50.908;6.916;2023-04-05T03:35:04;5.43;;;4.10;;
76262;SDS011;65080;50.908;6.916;2023-04-05T03:37:32;10.60;;;4.47;;
76262;SDS011;65080;50.908;6.916;2023-04-05T03:40:01;7.60;;;4.27;;
76262;SDS011;65080;50.908;6.916;2023-04-05T03:42:31;6.57;;;4.50;;
76262;SDS011;65080;50.908;6.916;2023-04-05T03:45:00;6.87;;;4.13;;
76262;SDS011;65080;50.908;6.916;2023-04-05T03:47:29;4.40;;;3.90;;
76262;SDS011;65080;50.908;6.916;2023-04-05T03:49:57;7.97;;;4.00;;
76262;SDS011;65080;50.908;6.916;2023-04-05T03:52:28;5.57;;;3.73;;
76262;SDS011;65080;50.908;6.916;2023-04-05T03:54:56;9.13;;;4.23;;
76262;SDS011;65080;50.908;6.916;2023-04-05T03:57:24;5.93;;;3.97;;
76262;SDS011;65080;50.908;6.916;2023-04-05T03:59:54;5.67;;;3.80;;
76262;SDS011;65080;50.908;6.916;2023-04-05T04:02:22;7.23;;;4.53;;
76262;SDS011;65080;50.908;6.916;2023-04-05T04:04:52;8.57;;;5.00;;
76262;SDS011;65080;50.908;6.916;2023-04-05T04:07:21;6.00;;;4.23;;
76262;SDS011;65080;50.908;6.916;2023-04-05T04:09:49;5.57;;;4.13;;
76262;SDS011;65080;50.908;6.916;2023-04-05T04:12:17;7.80;;;4.30;;
76262;SDS011;65080;50.908;6.916;2023-04-05T04:14:45;7.63;;;4.37;;
76262;SDS011;65080;50.908;6.916;2023-04-05T04:17:24;8.27;;;4.50;;
76262;SDS011;65080;50.908;6.916;2023-04-05T04:19:55;6.00;;;4.10;;
76262;SDS011;65080;50.908;6.916;2023-04-05T04:22:24;8.00;;;4.50;;
76262;SDS011;65080;50.908;6.916;2023-04-05T04:24:58;6.73;;;4.43;;
76262;SDS011;65080;50.908;6.916;2023-04-05T04:27:30;5.80;;;4.27;;
76262;SDS011;65080;50.908;6.916;2023-04-05T04:30:01;6.87;;;3.70;;
76262;SDS011;65080;50.908;6.916;2023-04-05T04:32:29;6.67;;;4.00;;
76262;SDS011;65080;50.908;6.916;2023-04-05T04:35:13;10.90;;;4.83;;
76262;SDS011;65080;50.908;6.916;2023-04-05T04:37:44;8.63;;;4.27;;
76262;SDS011;65080;50.908;6.916;2023-04-05T04:40:13;6.03;;;4.30;;
76262;SDS011;65080;50.908;6.916;2023-04-05T04:42:42;7.70;;;4.80;;
76262;SDS011;65080;50.908;6.916;2023-04-05T04:45:12;7.60;;;5.10;;
76262;SDS011;65080;50.908;6.916;2023-04-05T04:47:42;7.60;;;4.20;;
76262;SDS011;65080;50.908;6.916;2023-04-05T04:50:14;6.57;;;4.90;;
76262;SDS011;65080;50.908;6.916;2023-04-05T04:52:45;9.13;;;4.20;;
76262;SDS011;65080;50.908;6.916;2023-04-05T04:55:14;7.20;;;4.53;;
76262;SDS011;65080;50.908;6.916;2023-04-05T04:57:42;6.13;;;4.50;;
76262;SDS011;65080;50.908;6.916;2023-04-05T05:00:11;9.20;;;4.60;;
76262;SDS011;65080;50.908;6.916;2023-04-05T05:02:41;6.10;;;4.40;;
76262;SDS011;65080;50.908;6.916;2023-04-05T05:05:10;7.63;;;5.23;;
76262;SDS011;65080;50.908;6.916;2023-04-05T05:07:40;6.70;;;5.20;;
76262;SDS011;65080;50.908;6.916;2023-04-05T05:10:09;6.90;;;4.37;;
76262;SDS011;65080;50.908;6.916;2023-04-05T05:12:38;7.57;;;4.80;;
76262;SDS011;65080;50.908;6.916;2023-04-05T05:15:06;10.00;;;5.20;;
76262;SDS011;65080;50.908;6.916;2023-04-05T05:17:35;13.40;;;7.50;;
76262;SDS011;65080;50.908;6.916;2023-04-05T05:20:05;11.53;;;6.20;;
76262;SDS011;65080;50.908;6.916;2023-04-05T05:22:36;11.23;;;6.00;;
76262;SDS011;65080;50.908;6.916;2023-04-05T05:25:07;10.73;;;5.03;;
76262;SDS011;65080;50.908;6.916;2023-04-05T05:27:37;7.73;;;5.27;;
76262;SDS011;65080;50.908;6.916;2023-04-05T05:30:06;10.80;;;5.17;;
76262;SDS011;65080;50.908;6.916;2023-04-05T05:32:35;8.63;;;5.37;;
76262;SDS011;65080;50.908;6.916;2023-04-05T05:35:04;8.80;;;5.27;;
76262;SDS011;65080;50.908;6.916;2023-04-05T05:37:33;9.53;;;4.77;;
76262;SDS011;65080;50.908;6.916;2023-04-05T05:40:02;7.20;;;4.80;;
76262;SDS011;65080;50.908;6.916;2023-04-05T05:42:32;9.60;;;4.80;;
76262;SDS011;65080;50.908;6.916;2023-04-05T05:45:02;9.33;;;4.83;;
76262;SDS011;65080;50.908;6.916;2023-04-05T05:47:31;6.40;;;4.50;;
76262;SDS011;65080;50.908;6.916;2023-04-05T05:49:59;12.10;;;4.50;;
76262;SDS011;65080;50.908;6.916;2023-04-05T05:59:59;9.00;;;4.70;;
76262;SDS011;65080;50.908;6.916;2023-04-05T06:02:44;7.53;;;4.80;;
76262;SDS011;65080;50.908;6.916;2023-04-05T06:05:13;8.90;;;4.17;;
76262;SDS011;65080;50.908;6.916;2023-04-05T06:09:15;6.20;;;4.27;;
76262;SDS011;65080;50.908;6.916;2023-04-05T06:11:44;6.70;;;4.70;;
76262;SDS011;65080;50.908;6.916;2023-04-05T06:14:22;12.30;;;5.03;;
76262;SDS011;65080;50.908;6.916;2023-04-05T06:16:51;6.60;;;4.67;;
76262;SDS011;65080;50.908;6.916;2023-04-05T06:19:19;9.57;;;4.43;;
76262;SDS011;65080;50.908;6.916;2023-04-05T06:21:48;5.23;;;4.50;;
76262;SDS011;65080;50.908;6.916;2023-04-05T06:24:17;9.77;;;5.10;;
76262;SDS011;65080;50.908;6.916;2023-04-05T06:26:46;10.67;;;4.73;;
76262;SDS011;65080;50.908;6.916;2023-04-05T06:29:14;7.70;;;4.47;;
76262;SDS011;65080;50.908;6.916;2023-04-05T06:31:42;6.70;;;5.00;;
76262;SDS011;65080;50.908;6.916;2023-04-05T06:34:12;5.03;;;4.23;;
76262;SDS011;65080;50.908;6.916;2023-04-05T06:36:40;8.40;;;4.80;;
76262;SDS011;65080;50.908;6.916;2023-04-05T06:39:08;7.07;;;4.50;;
76262;SDS011;65080;50.908;6.916;2023-04-05T06:41:38;6.80;;;4.33;;
76262;SDS011;65080;50.908;6.916;2023-04-05T06:44:06;5.30;;;4.30;;
76262;SDS011;65080;50.908;6.916;2023-04-05T06:46:34;5.63;;;3.87;;
76262;SDS011;65080;50.908;6.916;2023-04-05T06:49:02;11.40;;;4.17;;
76262;SDS011;65080;50.908;6.916;2023-04-05T06:51:31;11.20;;;4.67;;
76262;SDS011;65080;50.908;6.916;2023-04-05T06:53:59;6.17;;;5.10;;
76262;SDS011;65080;50.908;6.916;2023-04-05T06:56:27;6.87;;;5.00;;
76262;SDS011;65080;50.908;6.916;2023-04-05T06:58:56;7.57;;;5.10;;
76262;SDS011;65080;50.908;6.916;2023-04-05T07:01:25;9.73;;;4.87;;
76262;SDS011;65080;50.908;6.916;2023-04-05T07:03:53;6.30;;;4.60;;
76262;SDS011;65080;50.908;6.916;2023-04-05T07:06:22;5.50;;;4.00;;
76262;SDS011;65080;50.908;6.916;2023-04-05T07:08:50;8.60;;;4.33;;
76262;SDS011;65080;50.908;6.916;2023-04-05T07:11:19;6.47;;;4.60;;
76262;SDS011;65080;50.908;6.916;2023-04-05T07:13:47;8.33;;;5.00;;
76262;SDS011;65080;50.908;6.916;2023-04-05T07:16:16;11.17;;;5.07;;
76262;SDS011;65080;50.908;6.916;2023-04-05T07:18:49;8.00;;;4.53;;
76262;SDS011;65080;50.908;6.916;2023-04-05T07:21:17;9.03;;;4.83;;
76262;SDS011;65080;50.908;6.916;2023-04-05T07:23:46;4.90;;;4.10;;
76262;SDS011;65080;50.908;6.916;2023-04-05T07:26:14;13.37;;;5.17;;
76262;SDS011;65080;50.908;6.916;2023-04-05T07:28:42;8.60;;;4.80;;
76262;SDS011;65080;50.908;6.916;2023-04-05T07:31:10;8.20;;;4.60;;
76262;SDS011;65080;50.908;6.916;2023-04-05T07:33:43;7.93;;;4.50;;
76262;SDS011;65080;50.908;6.916;2023-04-05T07:36:11;6.50;;;4.60;;
76262;SDS011;65080;50.908;6.916;2023-04-05T07:38:39;5.90;;;4.47;;
76262;SDS011;65080;50.908;6.916;2023-04-05T07:41:08;4.83;;;4.10;;
76262;SDS011;65080;50.908;6.916;2023-04-05T07:43:37;5.50;;;4.30;;
76262;SDS011;65080;50.908;6.916;2023-04-05T07:46:05;9.83;;;5.00;;
76262;SDS011;65080;50.908;6.916;2023-04-05T07:48:33;6.57;;;4.30;;
76262;SDS011;65080;50.908;6.916;2023-04-05T07:51:03;8.37;;;4.70;;
76262;SDS011;65080;50.908;6.916;2023-04-05T07:53:32;7.90;;;4.80;;
76262;SDS011;65080;50.908;6.916;2023-04-05T07:56:02;7.20;;;4.50;;
76262;SDS011;65080;50.908;6.916;2023-04-05T07:58:31;7.20;;;4.97;;
76262;SDS011;65080;50.908;6.916;2023-04-05T08:01:00;7.13;;;5.37;;
76262;SDS011;65080;50.908;6.916;2023-04-05T08:03:28;9.17;;;4.97;;
76262;SDS011;65080;50.908;6.916;2023-04-05T08:05:58;7.13;;;4.50;;
76262;SDS011;65080;50.908;6.916;2023-04-05T08:08:28;9.00;;;5.53;;
76262;SDS011;65080;50.908;6.916;2023-04-05T08:10:56;6.60;;;4.80;;
76262;SDS011;65080;50.908;6.916;2023-04-05T08:13:25;6.83;;;4.60;;
76262;SDS011;65080;50.908;6.916;2023-04-05T08:15:54;7.57;;;5.30;;
76262;SDS011;65080;50.908;6.916;2023-04-05T08:18:23;7.30;;;4.70;;
76262;SDS011;65080;50.908;6.916;2023-04-05T08:20:52;10.40;;;4.73;;
76262;SDS011;65080;50.908;6.916;2023-04-05T08:23:21;8.03;;;4.77;;
76262;SDS011;65080;50.908;6.916;2023-04-05T08:25:51;6.60;;;4.87;;
76262;SDS011;65080;50.908;6.916;2023-04-05T08:28:19;5.90;;;4.23;;
76262;SDS011;65080;50.908;6.916;2023-04-05T08:30:51;7.47;;;4.27;;
76262;SDS011;65080;50.908;6.916;2023-04-05T08:33:20;6.20;;;4.77;;
76262;SDS011;65080;50.908;6.916;2023-04-05T08:35:49;6.47;;;4.83;;
76262;SDS011;65080;50.908;6.916;2023-04-05T08:38:18;5.93;;;4.50;;
76262;SDS011;65080;50.908;6.916;2023-04-05T08:40:46;5.53;;;4.23;;
76262;SDS011;65080;50.908;6.916;2023-04-05T08:43:22;5.63;;;4.70;;
76262;SDS011;65080;50.908;6.916;2023-04-05T08:45:55;7.00;;;4.63;;
76262;SDS011;65080;50.908;6.916;2023-04-05T08:48:25;6.47;;;4.40;;
76262;SDS011;65080;50.908;6.916;2023-04-05T08:50:58;7.37;;;5.00;;
76262;SDS011;65080;50.908;6.916;2023-04-05T08:53:27;10.20;;;5.60;;
76262;SDS011;65080;50.908;6.916;2023-04-05T08:55:56;9.20;;;5.07;;
76262;SDS011;65080;50.908;6.916;2023-04-05T08:58:28;6.20;;;4.40;;
76262;SDS011;65080;50.908;6.916;2023-04-05T09:00:59;6.53;;;4.67;;
76262;SDS011;65080;50.908;6.916;2023-04-05T09:03:30;8.20;;;4.70;;
76262;SDS011;65080;50.908;6.916;2023-04-05T09:06:04;9.27;;;5.57;;
76262;SDS011;65080;50.908;6.916;2023-04-05T09:08:34;7.37;;;5.17;;
76262;SDS011;65080;50.908;6.916;2023-04-05T09:11:03;6.57;;;4.47;;
76262;SDS011;65080;50.908;6.916;2023-04-05T09:13:33;6.10;;;4.10;;
76262;SDS011;65080;50.908;6.916;2023-04-05T09:16:02;9.63;;;5.17;;
76262;SDS011;65080;50.908;6.916;2023-04-05T09:18:34;6.73;;;5.23;;
76262;SDS011;65080;50.908;6.916;2023-04-05T09:21:02;5.80;;;4.17;;
76262;SDS011;65080;50.908;6.916;2023-04-05T09:23:32;6.37;;;4.27;;
76262;SDS011;65080;50.908;6.916;2023-04-05T09:26:02;8.77;;;5.17;;
76262;SDS011;65080;50.908;6.916;2023-04-05T09:28:46;6.80;;;4.63;;
76262;SDS011;65080;50.908;6.916;2023-04-05T09:34:01;7.70;;;4.80;;
76262;SDS011;65080;50.908;6.916;2023-04-05T09:36:32;5.27;;;4.73;;
76262;SDS011;65080;50.908;6.916;2023-04-05T09:39:05;9.70;;;5.13;;
76262;SDS011;65080;50.908;6.916;2023-04-05T09:41:34;7.10;;;4.33;;
76262;SDS011;65080;50.908;6.916;2023-04-05T09:44:04;5.90;;;4.03;;
76262;SDS011;65080;50.908;6.916;2023-04-05T09:46:34;8.70;;;5.33;;
76262;SDS011;65080;50.908;6.916;2023-04-05T09:49:04;8.93;;;5.03;;
76262;SDS011;65080;50.908;6.916;2023-04-05T09:51:36;5.07;;;4.20;;
76262;SDS011;65080;50.908;6.916;2023-04-05T09:54:06;16.93;;;4.60;;
76262;SDS011;65080;50.908;6.916;2023-04-05T09:56:37;5.87;;;4.60;;
76262;SDS011;65080;50.908;6.916;2023-04-05T09:59:09;9.70;;;5.97;;
76262;SDS011;65080;50.908;6.916;2023-04-05T10:01:42;14.43;;;5.50;;
76262;SDS011;65080;50.908;6.916;2023-04-05T10:04:11;7.20;;;5.10;;
76262;SDS011;65080;50.908;6.916;2023-04-05T10:06:40;6.67;;;4.63;;
76262;SDS011;65080;50.908;6.916;2023-04-05T10:09:10;6.13;;;4.47;;
76262;SDS011;65080;50.908;6.916;2023-04-05T10:11:40;9.60;;;5.80;;
76262;SDS011;65080;50.908;6.916;2023-04-05T10:14:11;6.83;;;5.33;;
76262;SDS011;65080;50.908;6.916;2023-04-05T10:16:42;7.90;;;4.37;;
76262;SDS011;65080;50.908;6.916;2023-04-05T10:19:21;6.83;;;4.83;;
76262;SDS011;65080;50.908;6.916;2023-04-05T10:21:54;5.90;;;4.53;;
76262;SDS011;65080;50.908;6.916;2023-04-05T10:24:30;7.57;;;4.90;;
76262;SDS011;65080;50.908;6.916;2023-04-05T10:27:03;7.70;;;4.50;;
76262;SDS011;65080;50.908;6.916;2023-04-05T10:29:46;7.50;;;5.57;;
76262;SDS011;65080;50.908;6.916;2023-04-05T10:32:25;8.57;;;4.70;;
76262;SDS011;65080;50.908;6.916;2023-04-05T10:34:59;6.63;;;4.53;;
76262;SDS011;65080;50.908;6.916;2023-04-05T10:37:39;8.00;;;4.87;;
76262;SDS011;65080;50.908;6.916;2023-04-05T10:40:20;7.33;;;5.57;;
76262;SDS011;65080;50.908;6.916;2023-04-05T10:42:48;6.67;;;4.37;;
76262;SDS011;65080;50.908;6.916;2023-04-05T10:45:19;5.40;;;4.90;;
76262;SDS011;65080;50.908;6.916;2023-04-05T10:47:49;10.70;;;4.47;;
76262;SDS011;65080;50.908;6.916;2023-04-05T10:50:22;6.50;;;3.80;;
76262;SDS011;65080;50.908;6.916;2023-04-05T10:52:51;7.60;;;4.40;;
76262;SDS011;65080;50.908;6.916;2023-04-05T10:55:19;6.33;;;4.57;;
76262;SDS011;65080;50.908;6.916;2023-04-05T10:57:48;4.80;;;4.30;;
76262;SDS011;65080;50.908;6.916;2023-04-05T11:00:19;9.10;;;4.23;;
76262;SDS011;65080;50.908;6.916;2023-04-05T11:02:52;8.30;;;4.90;;
76262;SDS011;65080;50.908;6.916;2023-04-05T11:05:29;6.67;;;5.07;;
76262;SDS011;65080;50.908;6.916;2023-04-05T11:08:01;5.73;;;4.40;;
76262;SDS011;65080;50.908;6.916;2023-04-05T11:10:32;10.67;;;4.80;;
76262;SDS011;65080;50.908;6.916;2023-04-05T11:13:03;9.23;;;5.00;;
76262;SDS011;65080;50.908;6.916;2023-04-05T11:15:35;5.30;;;4.80;;
76262;SDS011;65080;50.908;6.916;2023-04-05T11:18:04;7.20;;;5.43;;
76262;SDS011;65080;50.908;6.916;2023-04-05T11:20:40;6.53;;;5.40;;
76262;SDS011;65080;50.908;6.916;2023-04-05T11:23:10;6.90;;;5.40;;
76262;SDS011;65080;50.908;6.916;2023-04-05T11:25:40;5.23;;;4.40;;
76262;SDS011;65080;50.908;6.916;2023-04-05T11:28:21;6.17;;;5.17;;
76262;SDS011;65080;50.908;6.916;2023-04-05T11:30:54;5.97;;;4.30;;
76262;SDS011;65080;50.908;6.916;2023-04-05T11:33:37;7.40;;;4.90;;
76262;SDS011;65080;50.908;6.916;2023-04-05T11:36:34;7.33;;;5.50;;
76262;SDS011;65080;50.908;6.916;2023-04-05T11:39:23;6.10;;;5.00;;
76262;SDS011;65080;50.908;6.916;2023-04-05T11:41:57;6.30;;;5.00;;
76262;SDS011;65080;50.908;6.916;2023-04-05T11:44:29;9.43;;;5.20;;
76262;SDS011;65080;50.908;6.916;2023-04-05T11:47:08;7.00;;;4.90;;
76262;SDS011;65080;50.908;6.916;2023-04-05T11:49:37;7.17;;;5.10;;
76262;SDS011;65080;50.908;6.916;2023-04-05T11:52:09;10.03;;;6.07;;
76262;SDS011;65080;50.908;6.916;2023-04-05T11:54:38;6.80;;;5.30;;
76262;SDS011;65080;50.908;6.916;2023-04-05T11:57:12;8.50;;;5.17;;
76262;SDS011;65080;50.908;6.916;2023-04-05T11:59:42;5.87;;;4.70;;
76262;SDS011;65080;50.908;6.916;2023-04-05T12:02:12;6.30;;;5.07;;
76262;SDS011;65080;50.908;6.916;2023-04-05T12:04:41;6.07;;;4.73;;
76262;SDS011;65080;50.908;6.916;2023-04-05T12:07:09;8.33;;;5.50;;
76262;SDS011;65080;50.908;6.916;2023-04-05T12:12:27;69.87;;;7.57;;
76262;SDS011;65080;50.908;6.916;2023-04-05T12:14:59;12.07;;;4.93;;
76262;SDS011;65080;50.908;6.916;2023-04-05T12:17:39;7.67;;;6.23;;
76262;SDS011;65080;50.908;6.916;2023-04-05T12:20:09;7.67;;;5.90;;
76262;SDS011;65080;50.908;6.916;2023-04-05T12:22:39;11.93;;;7.03;;
76262;SDS011;65080;50.908;6.916;2023-04-05T12:25:08;8.43;;;6.00;;
76262;SDS011;65080;50.908;6.916;2023-04-05T12:27:38;7.20;;;6.00;;
76262;SDS011;65080;50.908;6.916;2023-04-05T12:30:07;7.70;;;5.90;;
76262;SDS011;65080;50.908;6.916;2023-04-05T12:32:43;6.43;;;5.37;;
76262;SDS011;65080;50.908;6.916;2023-04-05T12:35:14;6.90;;;5.63;;
76262;SDS011;65080;50.908;6.916;2023-04-05T12:37:43;9.57;;;6.37;;
76262;SDS011;65080;50.908;6.916;2023-04-05T12:40:12;6.97;;;5.60;;
76262;SDS011;65080;50.908;6.916;2023-04-05T12:42:40;8.17;;;6.73;;
76262;SDS011;65080;50.908;6.916;2023-04-05T12:45:12;8.20;;;6.30;;
76262;SDS011;65080;50.908;6.916;2023-04-05T12:47:48;10.10;;;6.70;;
76262;SDS011;65080;50.908;6.916;2023-04-05T12:50:18;11.63;;;5.57;;
76262;SDS011;65080;50.908;6.916;2023-04-05T12:52:54;13.03;;;7.30;;
76262;SDS011;65080;50.908;6.916;2023-04-05T12:55:23;8.67;;;5.40;;
76262;SDS011;65080;50.908;6.916;2023-04-05T12:57:53;10.60;;;6.30;;
76262;SDS011;65080;50.908;6.916;2023-04-05T13:00:25;13.77;;;7.17;;
76262;SDS011;65080;50.908;6.916;2023-04-05T13:02:57;6.83;;;6.10;;
76262;SDS011;65080;50.908;6.916;2023-04-05T13:05:26;8.10;;;6.80;;
76262;SDS011;65080;50.908;6.916;2023-04-05T13:07:56;7.33;;;6.27;;
76262;SDS011;65080;50.908;6.916;2023-04-05T13:10:25;8.00;;;6.50;;
76262;SDS011;65080;50.908;6.916;2023-04-05T13:12:53;9.97;;;6.20;;
76262;SDS011;65080;50.908;6.916;2023-04-05T13:15:21;9.30;;;6.67;;
76262;SDS011;65080;50.908;6.916;2023-04-05T13:17:50;8.03;;;7.23;;
76262;SDS011;65080;50.908;6.916;2023-04-05T13:20:21;7.33;;;6.43;;
76262;SDS011;65080;50.908;6.916;2023-04-05T13:22:50;9.73;;;6.90;;
76262;SDS011;65080;50.908;6.916;2023-04-05T13:25:18;9.70;;;7.07;;
76262;SDS011;65080;50.908;6.916;2023-04-05T13:27:46;10.20;;;7.07;;
76262;SDS011;65080;50.908;6.916;2023-04-05T13:30:14;7.30;;;6.57;;
76262;SDS011;65080;50.908;6.916;2023-04-05T13:32:43;9.93;;;6.50;;
76262;SDS011;65080;50.908;6.916;2023-04-05T13:35:11;6.43;;;5.77;;
76262;SDS011;65080;50.908;6.916;2023-04-05T13:37:41;8.93;;;7.20;;
76262;SDS011;65080;50.908;6.916;2023-04-05T13:40:09;8.30;;;6.70;;
76262;SDS011;65080;50.908;6.916;2023-04-05T13:42:38;9.67;;;7.30;;
76262;SDS011;65080;50.908;6.916;2023-04-05T13:45:06;8.40;;;6.80;;
76262;SDS011;65080;50.908;6.916;2023-04-05T13:47:35;11.47;;;7.10;;
76262;SDS011;65080;50.908;6.916;2023-04-05T13:50:04;8.77;;;7.87;;
76262;SDS011;65080;50.908;6.916;2023-04-05T13:52:33;7.53;;;6.47;;
76262;SDS011;65080;50.908;6.916;2023-04-05T13:55:04;6.73;;;5.90;;
76262;SDS011;65080;50.908;6.916;2023-04-05T13:57:33;7.90;;;6.30;;
76262;SDS011;65080;50.908;6.916;2023-04-05T14:00:01;7.90;;;6.20;;
76262;SDS011;65080;50.908;6.916;2023-04-05T14:02:30;7.77;;;6.37;;
76262;SDS011;65080;50.908;6.916;2023-04-05T14:04:58;9.30;;;6.43;;
76262;SDS011;65080;50.908;6.916;2023-04-05T14:07:27;6.80;;;5.67;;
76262;SDS011;65080;50.908;6.916;2023-04-05T14:09:55;7.83;;;6.97;;
76262;SDS011;65080;50.908;6.916;2023-04-05T14:12:25;8.27;;;6.80;;
76262;SDS011;65080;50.908;6.916;2023-04-05T14:14:53;9.43;;;6.30;;
76262;SDS011;65080;50.908;6.916;2023-04-05T14:17:21;7.23;;;5.93;;
76262;SDS011;65080;50.908;6.916;2023-04-05T14:19:50;8.57;;;6.10;;
76262;SDS011;65080;50.908;6.916;2023-04-05T14:22:18;8.17;;;6.40;;
76262;SDS011;65080;50.908;6.916;2023-04-05T14:24:47;10.03;;;6.80;;
76262;SDS011;65080;50.908;6.916;2023-04-05T14:27:15;8.10;;;6.47;;
76262;SDS011;65080;50.908;6.916;2023-04-05T14:29:45;7.90;;;6.20;;
76262;SDS011;65080;50.908;6.916;2023-04-05T14:32:13;8.93;;;7.20;;
76262;SDS011;65080;50.908;6.916;2023-04-05T14:34:41;8.40;;;6.77;;
76262;SDS011;65080;50.908;6.916;2023-04-05T14:37:09;7.73;;;6.27;;
76262;SDS011;65080;50.908;6.916;2023-04-05T14:39:37;7.80;;;6.07;;
76262;SDS011;65080;50.908;6.916;2023-04-05T14:42:06;9.20;;;8.17;;
76262;SDS011;65080;50.908;6.916;2023-04-05T14:44:34;10.27;;;8.20;;
76262;SDS011;65080;50.908;6.916;2023-04-05T14:47:03;7.73;;;6.93;;
76262;SDS011;65080;50.908;6.916;2023-04-05T14:49:32;11.07;;;6.60;;
76262;SDS011;65080;50.908;6.916;2023-04-05T14:52:00;10.60;;;6.80;;
76262;SDS011;65080;50.908;6.916;2023-04-05T14:54:28;8.53;;;6.97;;
76262;SDS011;65080;50.908;6.916;2023-04-05T14:56:57;9.10;;;6.50;;
76262;SDS011;65080;50.908;6.916;2023-04-05T14:59:25;10.33;;;7.40;;
76262;SDS011;65080;50.908;6.916;2023-04-05T15:01:53;8.17;;;6.47;;
76262;SDS011;65080;50.908;6.916;2023-04-05T15:04:23;8.30;;;6.90;;
76262;SDS011;65080;50.908;6.916;2023-04-05T15:06:52;8.97;;;6.83;;
76262;SDS011;65080;50.908;6.916;2023-04-05T15:09:20;10.37;;;7.43;;
76262;SDS011;65080;50.908;6.916;2023-04-05T15:11:48;7.80;;;6.40;;
76262;SDS011;65080;50.908;6.916;2023-04-05T15:14:16;9.10;;;6.43;;
76262;SDS011;65080;50.908;6.916;2023-04-05T15:16:57;7.23;;;5.87;;
76262;SDS011;65080;50.908;6.916;2023-04-05T15:19:26;8.83;;;7.20;;